createdAt,value
2017-11-10T00:00:26.131Z,89.09
2017-11-10T00:02:53.684Z,89.05
2017-11-10T00:05:21.273Z,89.10
2017-11-10T00:07:48.828Z,90.28
2017-11-10T00:10:16.382Z,91.05
2017-11-10T00:12:43.968Z,91.24
2017-11-10T00:15:11.528Z,91.11
2017-11-10T00:17:39.075Z,91.12
2017-11-10T00:20:06.678Z,91.14
2017-11-10T00:22:34.227Z,90.73
2017-11-10T00:25:01.771Z,90.31
2017-11-10T00:27:29.358Z,89.79
2017-11-10T00:29:56.919Z,89.46
2017-11-10T00:32:24.476Z,89.00
2017-11-10T00:34:52.060Z,88.86
2017-11-10T00:37:19.619Z,88.66
2017-11-10T00:39:47.179Z,88.47
2017-11-10T00:42:14.764Z,88.24
2017-11-10T00:44:42.319Z,88.04
2017-11-10T00:47:10.018Z,87.92
2017-11-10T00:49:37.685Z,87.82
2017-11-10T00:52:05.316Z,87.47
2017-11-10T00:54:32.929Z,87.18
2017-11-10T00:57:00.728Z,87.07
2017-11-10T00:59:28.413Z,86.91
2017-11-10T01:01:56.034Z,86.72
2017-11-10T01:04:23.707Z,86.53
2017-11-10T01:06:51.328Z,86.39
2017-11-10T01:09:18.957Z,86.34
2017-11-10T01:11:46.620Z,86.27
2017-11-10T01:14:14.235Z,86.08
2017-11-10T01:16:41.908Z,85.97
2017-11-10T01:19:09.591Z,86.00
2017-11-10T01:21:37.291Z,85.94
2017-11-10T01:24:04.915Z,85.98
2017-11-10T01:26:32.587Z,85.97
2017-11-10T01:29:00.276Z,85.99
2017-11-10T01:31:27.893Z,85.80
2017-11-10T01:33:55.560Z,85.66
2017-11-10T01:36:23.181Z,85.58
2017-11-10T01:38:50.864Z,85.60
2017-11-10T01:41:18.543Z,85.54
2017-11-10T01:43:46.181Z,85.47
2017-11-10T01:46:13.793Z,85.36
2017-11-10T01:48:43.323Z,85.28
2017-11-10T01:51:10.944Z,85.48
2017-11-10T01:53:38.584Z,85.82
2017-11-10T01:56:06.274Z,85.84
2017-11-10T01:58:33.969Z,85.88
2017-11-10T02:01:01.698Z,86.02
2017-11-10T02:03:29.441Z,85.79
2017-11-10T02:05:57.124Z,85.41
2017-11-10T02:08:24.818Z,85.37
2017-11-10T02:10:52.494Z,85.49
2017-11-10T02:13:20.186Z,85.32
2017-11-10T02:15:47.812Z,85.20
2017-11-10T02:18:15.492Z,85.20
2017-11-10T02:20:43.150Z,84.91
2017-11-10T02:23:10.775Z,84.86
2017-11-10T02:25:38.522Z,84.76
2017-11-10T02:28:06.172Z,84.76
2017-11-10T02:30:33.812Z,84.80
2017-11-10T02:33:01.512Z,84.91
2017-11-10T02:35:29.253Z,85.05
2017-11-10T02:37:56.882Z,85.11
2017-11-10T02:40:24.688Z,85.04
2017-11-10T02:42:52.373Z,84.79
2017-11-10T02:45:20.009Z,84.67
2017-11-10T02:47:47.685Z,85.09
2017-11-10T02:50:15.325Z,84.94
2017-11-10T02:52:42.974Z,84.91
2017-11-10T02:55:10.720Z,84.86
2017-11-10T02:57:38.397Z,84.97
2017-11-10T03:00:06.025Z,84.98
2017-11-10T03:02:33.700Z,85.23
2017-11-10T03:05:01.310Z,85.15
2017-11-10T03:07:29.013Z,84.95
2017-11-10T03:09:56.777Z,84.81
2017-11-10T03:12:24.421Z,84.72
2017-11-10T03:14:52.123Z,84.72
2017-11-10T03:17:19.808Z,84.78
2017-11-10T03:19:47.494Z,84.63
2017-11-10T03:22:15.111Z,84.59
2017-11-10T03:24:42.767Z,84.63
2017-11-10T03:27:10.419Z,84.63
2017-11-10T03:29:38.120Z,84.62
2017-11-10T03:32:05.813Z,84.59
2017-11-10T03:34:33.436Z,84.89
2017-11-10T03:37:01.059Z,84.99
2017-11-10T03:39:28.743Z,84.90
2017-11-10T03:41:56.380Z,84.78
2017-11-10T03:44:24.022Z,84.59
2017-11-10T03:46:51.726Z,84.66
2017-11-10T03:49:19.392Z,84.73
2017-11-10T03:51:47.081Z,84.71
2017-11-10T03:54:14.747Z,84.72
2017-11-10T03:56:42.387Z,84.64
2017-11-10T03:59:10.011Z,84.51
2017-11-10T04:01:37.693Z,84.44
2017-11-10T04:04:05.323Z,84.41
2017-11-10T04:06:32.948Z,84.45
2017-11-10T04:09:00.628Z,84.61
2017-11-10T04:11:28.285Z,84.79
2017-11-10T04:13:55.916Z,85.08
2017-11-10T04:16:23.705Z,85.35
2017-11-10T04:18:51.398Z,85.78
2017-11-10T04:21:19.021Z,86.09
2017-11-10T04:23:46.754Z,86.02
2017-11-10T04:26:14.376Z,86.03
2017-11-10T04:28:42.080Z,86.08
2017-11-10T04:31:09.763Z,86.01
2017-11-10T04:33:37.423Z,86.13
2017-11-10T04:36:05.156Z,86.26
2017-11-10T04:38:33.050Z,86.36
2017-11-10T04:41:00.728Z,86.48
2017-11-10T04:43:28.409Z,86.55
2017-11-10T04:45:56.108Z,86.55
2017-11-10T04:48:23.732Z,86.70
2017-11-10T04:50:51.374Z,86.98
2017-11-10T04:53:19.056Z,87.03
2017-11-10T04:55:46.750Z,87.29
2017-11-10T04:58:14.380Z,87.39
2017-11-10T05:00:42.048Z,87.35
2017-11-10T05:03:09.675Z,87.55
2017-11-10T05:05:37.293Z,87.71
2017-11-10T05:08:05.037Z,87.51
2017-11-10T05:10:32.677Z,87.35
2017-11-10T05:13:00.297Z,87.31
2017-11-10T05:15:28.029Z,87.38
2017-11-10T05:17:55.706Z,87.48
2017-11-10T05:20:23.339Z,87.57
2017-11-10T05:22:51.044Z,87.16
2017-11-10T05:25:18.731Z,87.01
2017-11-10T05:27:46.421Z,86.98
2017-11-10T05:30:14.220Z,86.90
2017-11-10T05:32:41.959Z,86.77
2017-11-10T05:35:09.648Z,86.71
2017-11-10T05:37:37.413Z,86.70
2017-11-10T05:40:05.089Z,86.62
2017-11-10T05:42:32.767Z,86.72
2017-11-10T05:45:00.599Z,86.49
2017-11-10T05:47:28.266Z,86.36
2017-11-10T05:49:55.948Z,86.35
2017-11-10T05:52:23.737Z,86.35
2017-11-10T05:54:51.480Z,86.25
2017-11-10T05:57:19.167Z,86.39
2017-11-10T05:59:46.893Z,86.48
2017-11-10T06:02:14.631Z,86.39
2017-11-10T06:04:42.350Z,85.95
2017-11-10T06:07:10.025Z,86.15
2017-11-10T06:09:37.652Z,86.16
2017-11-10T06:12:05.341Z,85.94
2017-11-10T06:14:33.085Z,85.93
2017-11-10T06:17:00.774Z,85.96
2017-11-10T06:19:28.388Z,85.80
2017-11-10T06:21:56.149Z,85.71
2017-11-10T06:24:23.781Z,85.68
2017-11-10T06:26:51.408Z,85.55
2017-11-10T06:29:19.086Z,85.19
2017-11-10T06:31:46.705Z,84.84
2017-11-10T06:34:14.332Z,84.76
2017-11-10T06:36:42.008Z,84.72
2017-11-10T06:39:09.642Z,84.52
2017-11-10T06:41:37.337Z,84.56
2017-11-10T06:44:05.045Z,84.17
2017-11-10T06:46:32.676Z,83.83
2017-11-10T06:49:01.281Z,83.56
2017-11-10T06:51:28.954Z,83.41
2017-11-10T06:53:56.636Z,83.08
2017-11-10T06:56:24.317Z,83.14
2017-11-10T06:58:51.990Z,81.91
2017-11-10T07:01:19.612Z,81.85
2017-11-10T07:03:47.272Z,81.55
2017-11-10T07:06:14.969Z,81.42
2017-11-10T07:08:42.596Z,81.00
2017-11-10T07:11:10.281Z,81.08
2017-11-10T07:13:38.018Z,81.07
2017-11-10T07:16:05.700Z,80.69
2017-11-10T07:18:33.325Z,80.44
2017-11-10T07:21:01.000Z,80.15
2017-11-10T07:23:28.617Z,80.03
2017-11-10T07:25:56.677Z,79.92
2017-11-10T07:28:24.352Z,79.62
2017-11-10T07:30:51.977Z,79.23
2017-11-10T07:33:19.598Z,79.02
2017-11-10T07:35:47.340Z,78.16
2017-11-10T07:38:14.956Z,78.38
2017-11-10T07:40:42.584Z,77.67
2017-11-10T07:43:10.320Z,77.46
2017-11-10T07:45:37.954Z,77.31
2017-11-10T07:48:05.646Z,76.92
2017-11-10T07:50:33.320Z,76.60
2017-11-10T07:53:00.953Z,76.84
2017-11-10T07:55:28.617Z,76.56
2017-11-10T07:57:56.380Z,76.04
2017-11-10T08:00:24.096Z,76.58
2017-11-10T08:02:51.752Z,75.44
2017-11-10T08:05:19.484Z,75.57
2017-11-10T08:07:47.166Z,75.85
2017-11-10T08:10:14.836Z,75.54
2017-11-10T08:12:42.761Z,75.40
2017-11-10T08:15:10.767Z,75.30
2017-11-10T08:17:38.595Z,73.85
2017-11-10T08:20:07.101Z,74.11
2017-11-10T08:22:34.786Z,74.54
2017-11-10T08:25:02.413Z,74.60
2017-11-10T08:27:30.088Z,75.38
2017-11-10T08:29:57.771Z,74.54
2017-11-10T08:32:25.418Z,73.79
2017-11-10T08:34:53.119Z,74.03
2017-11-10T08:37:20.788Z,73.22
2017-11-10T08:39:48.489Z,72.78
2017-11-10T08:42:16.185Z,72.73
2017-11-10T08:44:43.812Z,72.54
2017-11-10T08:47:11.498Z,72.45
2017-11-10T08:49:39.176Z,72.64
2017-11-10T08:52:06.976Z,72.30
2017-11-10T08:54:34.600Z,72.02
2017-11-10T08:57:02.276Z,72.37
2017-11-10T08:59:29.965Z,71.86
2017-11-10T09:01:57.711Z,72.13
2017-11-10T09:04:25.429Z,71.38
2017-11-10T09:06:53.121Z,70.65
2017-11-10T09:09:20.859Z,70.85
2017-11-10T09:11:48.536Z,70.29
2017-11-10T09:14:16.244Z,69.87
2017-11-10T09:16:43.875Z,70.88
2017-11-10T09:19:11.604Z,70.17
2017-11-10T09:21:39.361Z,70.01
2017-11-10T09:24:07.043Z,69.05
2017-11-10T09:26:34.873Z,69.22
2017-11-10T09:32:10.173Z,68.25
2017-11-10T09:34:37.868Z,68.27
2017-11-10T09:40:19.017Z,69.48
2017-11-10T09:45:54.595Z,68.04
2017-11-10T09:48:29.872Z,67.83
2017-11-10T09:51:03.117Z,67.79
2017-11-10T09:53:36.248Z,67.98
2017-11-10T09:56:18.958Z,67.41
2017-11-10T10:02:09.147Z,66.06
2017-11-10T10:04:42.512Z,65.83
2017-11-10T10:10:12.017Z,64.61
2017-11-10T10:16:04.284Z,66.10
2017-11-10T10:18:47.493Z,65.86
2017-11-10T10:21:20.725Z,65.71
2017-11-10T10:23:49.504Z,65.24
2017-11-10T10:26:18.119Z,64.93
2017-11-10T10:28:46.573Z,65.01
2017-11-10T10:31:14.198Z,65.13
2017-11-10T10:33:41.828Z,64.27
2017-11-10T10:36:10.229Z,63.91
2017-11-10T10:38:37.918Z,64.52
2017-11-10T10:41:05.565Z,64.07
2017-11-10T10:43:33.253Z,62.68
2017-11-10T10:46:00.888Z,63.51
2017-11-10T10:48:28.524Z,63.46
2017-11-10T10:50:56.221Z,63.50
2017-11-10T10:53:23.906Z,63.04
2017-11-10T10:55:51.593Z,62.84
2017-11-10T10:58:20.056Z,62.19
2017-11-10T11:00:47.777Z,61.52
2017-11-10T11:03:15.416Z,60.71
2017-11-10T11:05:43.173Z,62.62
2017-11-10T11:08:10.796Z,60.72
2017-11-10T11:10:38.666Z,60.38
2017-11-10T11:13:06.500Z,60.67
2017-11-10T11:15:34.279Z,59.58
2017-11-10T11:18:01.899Z,59.74
2017-11-10T11:20:29.669Z,59.57
2017-11-10T11:22:57.359Z,59.84
2017-11-10T11:25:24.996Z,59.31
2017-11-10T11:27:52.672Z,59.31
2017-11-10T11:30:20.287Z,58.65
2017-11-10T11:32:47.918Z,58.30
2017-11-10T11:35:15.701Z,58.81
2017-11-10T11:37:43.332Z,58.02
2017-11-10T11:40:11.019Z,58.09
2017-11-10T11:42:38.700Z,58.56
2017-11-10T11:45:06.418Z,57.88
2017-11-10T11:47:34.124Z,58.24
2017-11-10T11:50:01.808Z,58.07
2017-11-10T11:52:29.456Z,59.01
2017-11-10T11:54:57.083Z,59.18
2017-11-10T11:57:24.756Z,58.70
2017-11-10T11:59:52.381Z,58.83
2017-11-10T12:02:20.037Z,58.72
2017-11-10T12:04:47.704Z,57.66
2017-11-10T12:07:15.325Z,58.51
2017-11-10T12:09:43.019Z,57.32
2017-11-10T12:12:10.736Z,57.84
2017-11-10T12:14:38.357Z,58.44
2017-11-10T12:17:06.216Z,58.42
2017-11-10T12:19:33.944Z,58.94
2017-11-10T12:22:01.734Z,58.63
2017-11-10T12:24:29.481Z,58.69
2017-11-10T12:26:57.220Z,58.82
2017-11-10T12:29:24.933Z,58.36
2017-11-10T12:31:52.632Z,58.92
2017-11-10T12:34:20.337Z,59.47
2017-11-10T12:36:48.197Z,59.55
2017-11-10T12:39:15.817Z,59.96
2017-11-10T12:41:43.736Z,59.97
2017-11-10T12:44:11.369Z,60.04
2017-11-10T12:46:39.006Z,60.07
2017-11-10T12:49:06.717Z,59.87
2017-11-10T12:51:35.769Z,59.65
2017-11-10T12:54:04.248Z,59.83
2017-11-10T12:56:32.237Z,59.68
2017-11-10T12:59:00.068Z,59.36
2017-11-10T13:01:27.981Z,59.07
2017-11-10T13:03:55.669Z,58.99
2017-11-10T13:06:23.349Z,59.08
2017-11-10T13:08:51.029Z,60.35
2017-11-10T13:11:18.773Z,61.50
2017-11-10T13:13:46.464Z,61.91
2017-11-10T13:16:14.220Z,63.15
2017-11-10T13:18:42.670Z,64.90
2017-11-10T13:21:11.089Z,64.33
2017-11-10T13:23:38.781Z,63.43
2017-11-10T13:26:06.568Z,63.90
2017-11-10T13:28:34.262Z,63.96
2017-11-10T13:31:01.954Z,64.30
2017-11-10T13:33:29.633Z,64.71
2017-11-10T13:35:57.348Z,65.49
2017-11-10T13:38:25.018Z,66.58
2017-11-10T13:40:52.691Z,66.44
2017-11-10T13:43:20.368Z,67.44
2017-11-10T13:45:48.344Z,67.59
2017-11-10T13:48:16.021Z,68.00
2017-11-10T13:50:43.647Z,68.67
2017-11-10T13:53:11.416Z,68.72
2017-11-10T13:55:39.281Z,69.22
2017-11-10T13:58:06.909Z,69.58
2017-11-10T14:00:34.604Z,69.91
2017-11-10T14:03:02.330Z,70.31
2017-11-10T14:05:30.057Z,70.74
2017-11-10T14:07:57.869Z,70.79
2017-11-10T14:10:25.645Z,71.04
2017-11-10T14:12:53.333Z,71.20
2017-11-10T14:15:20.974Z,71.82
2017-11-10T14:17:48.828Z,72.01
2017-11-10T14:20:16.520Z,72.32
2017-11-10T14:22:44.144Z,72.73
2017-11-10T14:25:11.873Z,72.85
2017-11-10T14:27:39.509Z,73.10
2017-11-10T14:30:10.056Z,73.39
2017-11-10T14:32:37.717Z,73.52
2017-11-10T14:35:05.341Z,73.81
2017-11-10T14:37:32.969Z,73.74
2017-11-10T14:40:00.713Z,73.68
2017-11-10T14:42:28.333Z,74.26
2017-11-10T14:44:56.084Z,74.55
2017-11-10T14:47:23.772Z,75.09
2017-11-10T14:49:51.392Z,75.78
2017-11-10T14:52:19.114Z,75.98
2017-11-10T14:54:46.788Z,76.46
2017-11-10T14:57:14.550Z,76.97
2017-11-10T14:59:42.250Z,77.38
2017-11-10T15:02:11.061Z,77.99
2017-11-10T15:04:38.854Z,78.63
2017-11-10T15:07:13.552Z,79.10
2017-11-10T15:09:41.232Z,80.18
2017-11-10T15:12:09.209Z,80.70
2017-11-10T15:14:36.881Z,81.60
2017-11-10T15:17:04.537Z,81.92
2017-11-10T15:19:32.185Z,81.94
2017-11-10T15:21:59.889Z,82.05
2017-11-10T15:24:27.581Z,82.30
2017-11-10T15:26:55.293Z,82.48
2017-11-10T15:29:23.056Z,82.94
2017-11-10T15:31:50.800Z,83.08
2017-11-10T15:34:18.477Z,83.29
2017-11-10T15:36:46.209Z,83.42
2017-11-10T15:39:13.973Z,83.48
2017-11-10T15:41:41.605Z,83.61
2017-11-10T15:44:09.317Z,83.47
2017-11-10T15:46:37.044Z,83.83
2017-11-10T15:49:04.737Z,83.85
2017-11-10T15:51:32.407Z,84.04
2017-11-10T15:54:00.089Z,84.35
2017-11-10T15:56:27.877Z,84.56
2017-11-10T15:58:55.577Z,84.41
2017-11-10T16:01:23.204Z,84.35
2017-11-10T16:03:52.243Z,84.45
2017-11-10T16:06:19.947Z,84.52
2017-11-10T16:08:47.579Z,84.82
2017-11-10T16:11:15.421Z,84.82
2017-11-10T16:13:43.425Z,84.89
2017-11-10T16:16:11.101Z,84.89
2017-11-10T16:18:38.896Z,85.32
2017-11-10T16:21:06.621Z,85.32
2017-11-10T16:23:34.302Z,85.54
2017-11-10T16:26:01.965Z,85.76
2017-11-10T16:28:29.729Z,86.38
2017-11-10T16:30:57.388Z,86.56
2017-11-10T16:33:25.004Z,86.75
2017-11-10T16:35:52.680Z,86.90
2017-11-10T16:38:20.297Z,86.86
2017-11-10T16:40:47.915Z,86.59
2017-11-10T16:43:15.576Z,86.32
2017-11-10T16:45:43.414Z,86.15
2017-11-10T16:48:11.112Z,86.02
2017-11-10T16:50:38.872Z,86.09
2017-11-10T16:53:06.570Z,86.38
2017-11-10T16:55:34.287Z,86.31
2017-11-10T16:58:01.964Z,86.28
2017-11-10T17:00:29.691Z,86.60
2017-11-10T17:02:57.327Z,86.93
2017-11-10T17:05:25.025Z,86.94
2017-11-10T17:07:52.733Z,86.92
2017-11-10T17:10:20.472Z,86.87
2017-11-10T17:12:48.227Z,86.64
2017-11-10T17:15:15.852Z,87.04
2017-11-10T17:17:43.480Z,87.04
2017-11-10T17:20:11.238Z,87.07
2017-11-10T17:22:39.104Z,87.30
2017-11-10T17:25:06.789Z,87.29
2017-11-10T17:27:34.512Z,87.48
2017-11-10T17:30:02.224Z,87.67
2017-11-10T17:32:29.946Z,87.88
2017-11-10T17:34:57.632Z,87.91
2017-11-10T17:37:25.281Z,87.95
2017-11-10T17:39:52.907Z,87.97
2017-11-10T17:42:20.648Z,87.95
2017-11-10T17:44:48.323Z,87.98
2017-11-10T17:47:16.013Z,87.88
2017-11-10T17:49:43.801Z,88.02
2017-11-10T17:52:11.565Z,88.42
2017-11-10T17:54:39.272Z,88.72
2017-11-10T17:57:07.036Z,88.79
2017-11-10T17:59:34.684Z,88.62
2017-11-10T18:02:02.300Z,88.53
2017-11-10T18:04:30.120Z,88.75
2017-11-10T18:06:57.744Z,88.78
2017-11-10T18:09:25.446Z,88.78
2017-11-10T18:11:53.119Z,88.86
2017-11-10T18:14:20.820Z,89.03
2017-11-10T18:16:48.456Z,89.07
2017-11-10T18:19:16.196Z,89.01
2017-11-10T18:21:43.966Z,89.07
2017-11-10T18:24:11.641Z,89.01
2017-11-10T18:26:39.320Z,89.17
2017-11-10T18:29:07.000Z,89.14
2017-11-10T18:31:34.818Z,89.38
2017-11-10T18:34:02.500Z,89.45
2017-11-10T18:36:30.185Z,89.27
2017-11-10T18:38:57.820Z,89.11
2017-11-10T18:41:25.500Z,89.52
2017-11-10T18:43:53.180Z,89.67
2017-11-10T18:46:20.979Z,89.47
2017-11-10T18:48:54.427Z,89.52
2017-11-10T18:51:22.114Z,89.83
2017-11-10T18:53:49.828Z,89.73
2017-11-10T18:56:17.652Z,89.74
2017-11-10T18:58:45.474Z,89.75
2017-11-10T19:01:13.129Z,89.75
2017-11-10T19:03:40.855Z,89.52
2017-11-10T19:06:08.664Z,89.79
2017-11-10T19:08:36.356Z,89.58
2017-11-10T19:11:04.094Z,89.60
2017-11-10T19:13:31.791Z,89.31
2017-11-10T19:15:59.491Z,89.23
2017-11-10T19:18:27.184Z,89.12
2017-11-10T19:20:54.969Z,89.32
2017-11-10T19:23:22.705Z,89.42
2017-11-10T19:25:50.403Z,89.44
2017-11-10T19:28:18.028Z,89.44
2017-11-10T19:30:45.732Z,89.32
2017-11-10T19:33:13.416Z,89.37
2017-11-10T19:35:41.104Z,89.33
2017-11-10T19:38:08.723Z,89.38
2017-11-10T19:40:36.486Z,89.06
2017-11-10T19:43:04.167Z,88.86
2017-11-10T19:45:32.004Z,88.73
2017-11-10T19:47:59.700Z,88.53
2017-11-10T19:50:27.339Z,88.50
2017-11-10T19:52:55.029Z,88.51
2017-11-10T19:55:22.766Z,88.32
2017-11-10T19:57:50.417Z,88.40
2017-11-10T20:00:18.052Z,88.49
2017-11-10T20:02:45.825Z,88.26
2017-11-10T20:05:13.453Z,88.33
2017-11-10T20:07:41.140Z,88.18
2017-11-10T20:10:08.933Z,87.79
2017-11-10T20:12:36.651Z,87.06
2017-11-10T20:15:04.283Z,86.99
2017-11-10T20:17:31.968Z,87.14
2017-11-10T20:19:59.748Z,87.43
2017-11-10T20:22:27.437Z,87.80
2017-11-10T20:24:55.228Z,88.57
2017-11-10T20:27:22.940Z,88.86
2017-11-10T20:29:50.652Z,89.10
2017-11-10T20:32:19.361Z,89.14
2017-11-10T20:34:47.089Z,89.24
2017-11-10T20:37:14.714Z,88.81
2017-11-10T20:39:42.449Z,88.54
2017-11-10T20:42:10.147Z,88.36
2017-11-10T20:44:37.821Z,88.06
2017-11-10T20:47:05.552Z,87.71
2017-11-10T20:49:33.288Z,87.51
2017-11-10T20:52:00.912Z,87.38
2017-11-10T20:54:28.663Z,87.47
2017-11-10T20:56:56.279Z,87.64
2017-11-10T20:59:23.904Z,87.88
2017-11-10T21:01:52.469Z,87.96
2017-11-10T21:04:20.108Z,87.29
2017-11-10T21:06:47.729Z,87.63
2017-11-10T21:09:15.404Z,87.85
2017-11-10T21:11:43.118Z,88.14
2017-11-10T21:14:10.744Z,88.41
2017-11-10T21:16:38.480Z,88.76
2017-11-10T21:19:06.157Z,88.96
2017-11-10T21:21:33.879Z,88.43
2017-11-10T21:24:01.600Z,88.09
2017-11-10T21:26:29.220Z,87.95
2017-11-10T21:28:56.837Z,88.16
2017-11-10T21:31:24.513Z,88.47
2017-11-10T21:33:52.196Z,89.00
2017-11-10T21:36:19.900Z,89.07
2017-11-10T21:38:47.577Z,89.13
2017-11-10T21:41:15.380Z,89.36
2017-11-10T21:43:43.006Z,89.43
2017-11-10T21:46:10.727Z,89.43
2017-11-10T21:48:38.518Z,89.20
2017-11-10T21:51:06.204Z,89.33
2017-11-10T21:53:33.877Z,89.27
2017-11-10T21:56:01.568Z,89.49
2017-11-10T21:58:29.382Z,89.59
2017-11-10T22:00:57.121Z,89.29
2017-11-10T22:03:24.896Z,89.41
2017-11-10T22:05:52.524Z,89.79
2017-11-10T22:08:20.201Z,89.43
2017-11-10T22:10:47.898Z,89.43
2017-11-10T22:13:15.578Z,89.80
2017-11-10T22:15:43.314Z,89.54
2017-11-10T22:18:10.996Z,89.85
2017-11-10T22:20:38.653Z,89.89
2017-11-10T22:23:06.432Z,89.89
2017-11-10T22:25:34.081Z,90.10
2017-11-10T22:28:01.969Z,90.40
2017-11-10T22:30:29.640Z,90.37
2017-11-10T22:32:57.376Z,90.50
2017-11-10T22:35:25.061Z,90.68
2017-11-10T22:37:52.812Z,90.47
2017-11-10T22:40:20.431Z,90.91
2017-11-10T22:42:48.109Z,91.51
2017-11-10T22:45:15.788Z,91.04
2017-11-10T22:47:43.404Z,91.33
2017-11-10T22:50:11.124Z,91.35
2017-11-10T22:52:38.824Z,91.53
2017-11-10T22:55:06.453Z,91.55
2017-11-10T22:57:34.173Z,91.78
2017-11-10T23:00:02.509Z,91.69
2017-11-10T23:02:30.141Z,91.56
2017-11-10T23:04:57.901Z,91.18
2017-11-10T23:07:25.560Z,90.90
2017-11-10T23:09:53.225Z,91.08
2017-11-10T23:12:20.949Z,91.13
2017-11-10T23:14:48.671Z,91.03
2017-11-10T23:17:16.288Z,91.31
2017-11-10T23:19:44.005Z,91.39
2017-11-10T23:22:12.112Z,91.77
2017-11-10T23:24:39.729Z,91.53
2017-11-10T23:27:07.412Z,91.72
2017-11-10T23:29:35.152Z,91.95
2017-11-10T23:32:02.773Z,92.10
2017-11-10T23:34:30.454Z,91.93
2017-11-10T23:36:58.138Z,91.83
2017-11-10T23:39:25.766Z,91.79
2017-11-10T23:41:54.202Z,91.65
2017-11-10T23:44:21.878Z,91.24
2017-11-10T23:46:49.494Z,90.90
2017-11-10T23:49:17.168Z,90.83
2017-11-10T23:51:44.850Z,90.81
2017-11-10T23:54:12.472Z,90.89
2017-11-10T23:56:40.085Z,90.66
2017-11-10T23:59:07.747Z,90.60
